sensor_id;sensor_type;location;lat;lon;timestamp;P1;durP1;ratioP1;P2;durP2;ratioP2
4132;SDS011;2080;51.038;7.008;2023-04-03T00:00:37;724.40;;;660.90;;
4132;SDS011;2080;51.038;7.008;2023-04-03T00:03:02;613.20;;;556.47;;
4132;SDS011;2080;51.038;7.008;2023-04-03T00:05:28;703.87;;;641.37;;
4132;SDS011;2080;51.038;7.008;2023-04-03T00:07:55;641.70;;;582.43;;
4132;SDS011;2080;51.038;7.008;2023-04-03T00:10:21;613.50;;;556.88;;
4132;SDS011;2080;51.038;7.008;2023-04-03T00:12:49;566.45;;;511.90;;
4132;SDS011;2080;51.038;7.008;2023-04-03T00:15:14;585.53;;;529.75;;
4132;SDS011;2080;51.038;7.008;2023-04-03T00:17:40;208.37;;;18.97;;
4132;SDS011;2080;51.038;7.008;2023-04-03T00:20:06;191.33;;;11.03;;
4132;SDS011;2080;51.038;7.008;2023-04-03T00:22:32;186.47;;;11.53;;
4132;SDS011;2080;51.038;7.008;2023-04-03T00:24:57;301.47;;;122.23;;
4132;SDS011;2080;51.038;7.008;2023-04-03T00:27:25;213.77;;;15.50;;
4132;SDS011;2080;51.038;7.008;2023-04-03T00:29:50;402.73;;;306.17;;
4132;SDS011;2080;51.038;7.008;2023-04-03T00:32:15;655.13;;;595.58;;
4132;SDS011;2080;51.038;7.008;2023-04-03T00:34:41;711.17;;;648.77;;
4132;SDS011;2080;51.038;7.008;2023-04-03T00:37:06;662.03;;;602.50;;
4132;SDS011;2080;51.038;7.008;2023-04-03T00:39:32;714.60;;;651.63;;
4132;SDS011;2080;51.038;7.008;2023-04-03T00:41:57;590.55;;;534.95;;
4132;SDS011;2080;51.038;7.008;2023-04-03T00:47:00;587.05;;;531.58;;
4132;SDS011;2080;51.038;7.008;2023-04-03T00:49:28;737.40;;;673.05;;
4132;SDS011;2080;51.038;7.008;2023-04-03T00:51:54;623.75;;;566.53;;
4132;SDS011;2080;51.038;7.008;2023-04-03T00:54:21;216.70;;;19.37;;
4132;SDS011;2080;51.038;7.008;2023-04-03T00:56:51;413.05;;;335.25;;
4132;SDS011;2080;51.038;7.008;2023-04-03T00:59:22;596.97;;;540.60;;
4132;SDS011;2080;51.038;7.008;2023-04-03T01:01:52;660.40;;;600.67;;
4132;SDS011;2080;51.038;7.008;2023-04-03T01:04:29;751.83;;;686.08;;
4132;SDS011;2080;51.038;7.008;2023-04-03T01:09:38;640.95;;;582.35;;
4132;SDS011;2080;51.038;7.008;2023-04-03T01:12:15;726.38;;;663.20;;
4132;SDS011;2080;51.038;7.008;2023-04-03T01:14:42;200.47;;;14.20;;
4132;SDS011;2080;51.038;7.008;2023-04-03T01:25:31;200.17;;;12.67;;
4132;SDS011;2080;51.038;7.008;2023-04-03T01:27:59;434.23;;;377.20;;
4132;SDS011;2080;51.038;7.008;2023-04-03T01:30:26;619.70;;;562.25;;
4132;SDS011;2080;51.038;7.008;2023-04-03T01:33:27;598.63;;;542.50;;
4132;SDS011;2080;51.038;7.008;2023-04-03T01:35:52;642.47;;;583.97;;
4132;SDS011;2080;51.038;7.008;2023-04-03T01:38:18;201.37;;;14.90;;
4132;SDS011;2080;51.038;7.008;2023-04-03T01:40:43;425.33;;;363.80;;
4132;SDS011;2080;51.038;7.008;2023-04-03T01:43:08;704.27;;;641.87;;
4132;SDS011;2080;51.038;7.008;2023-04-03T01:45:36;675.75;;;614.80;;
4132;SDS011;2080;51.038;7.008;2023-04-03T01:48:02;695.20;;;633.65;;
4132;SDS011;2080;51.038;7.008;2023-04-03T01:50:27;779.00;;;712.37;;
4132;SDS011;2080;51.038;7.008;2023-04-03T01:52:55;674.60;;;614.40;;
4132;SDS011;2080;51.038;7.008;2023-04-03T01:55:23;634.92;;;577.42;;
4132;SDS011;2080;51.038;7.008;2023-04-03T01:57:51;626.15;;;568.33;;
4132;SDS011;2080;51.038;7.008;2023-04-03T02:00:16;620.10;;;562.37;;
4132;SDS011;2080;51.038;7.008;2023-04-03T02:02:44;601.78;;;545.10;;
4132;SDS011;2080;51.038;7.008;2023-04-03T02:05:14;619.73;;;562.60;;
4132;SDS011;2080;51.038;7.008;2023-04-03T02:07:42;651.60;;;593.10;;
4132;SDS011;2080;51.038;7.008;2023-04-03T02:10:10;605.47;;;549.05;;
4132;SDS011;2080;51.038;7.008;2023-04-03T02:12:36;585.20;;;530.00;;
4132;SDS011;2080;51.038;7.008;2023-04-03T02:15:01;599.03;;;542.95;;
4132;SDS011;2080;51.038;7.008;2023-04-03T02:17:27;676.83;;;616.87;;
4132;SDS011;2080;51.038;7.008;2023-04-03T02:19:55;610.80;;;554.00;;
4132;SDS011;2080;51.038;7.008;2023-04-03T02:22:20;615.63;;;558.78;;
4132;SDS011;2080;51.038;7.008;2023-04-03T02:24:46;613.65;;;557.15;;
4132;SDS011;2080;51.038;7.008;2023-04-03T02:27:11;522.17;;;469.67;;
4132;SDS011;2080;51.038;7.008;2023-04-03T02:29:37;620.30;;;563.33;;
4132;SDS011;2080;51.038;7.008;2023-04-03T02:32:07;629.97;;;571.67;;
4132;SDS011;2080;51.038;7.008;2023-04-03T02:34:32;609.65;;;553.15;;
4132;SDS011;2080;51.038;7.008;2023-04-03T02:36:57;494.90;;;443.70;;
4132;SDS011;2080;51.038;7.008;2023-04-03T02:39:22;579.90;;;524.97;;
4132;SDS011;2080;51.038;7.008;2023-04-03T02:41:48;491.60;;;440.23;;
4132;SDS011;2080;51.038;7.008;2023-04-03T02:44:13;606.73;;;550.10;;
4132;SDS011;2080;51.038;7.008;2023-04-03T02:46:39;620.97;;;564.03;;
4132;SDS011;2080;51.038;7.008;2023-04-03T02:49:05;534.92;;;481.95;;
4132;SDS011;2080;51.038;7.008;2023-04-03T02:51:34;600.37;;;543.63;;
4132;SDS011;2080;51.038;7.008;2023-04-03T02:54:00;552.97;;;498.13;;
4132;SDS011;2080;51.038;7.008;2023-04-03T02:56:25;619.53;;;562.13;;
4132;SDS011;2080;51.038;7.008;2023-04-03T02:58:51;566.25;;;511.15;;
4132;SDS011;2080;51.038;7.008;2023-04-03T03:01:17;622.42;;;564.38;;
4132;SDS011;2080;51.038;7.008;2023-04-03T03:03:45;596.30;;;539.85;;
4132;SDS011;2080;51.038;7.008;2023-04-03T03:06:12;491.73;;;440.10;;
4132;SDS011;2080;51.038;7.008;2023-04-03T03:08:40;529.50;;;475.55;;
4132;SDS011;2080;51.038;7.008;2023-04-03T03:11:06;545.73;;;492.53;;
4132;SDS011;2080;51.038;7.008;2023-04-03T03:13:31;449.43;;;400.13;;
4132;SDS011;2080;51.038;7.008;2023-04-03T03:15:57;563.38;;;508.67;;
4132;SDS011;2080;51.038;7.008;2023-04-03T03:18:22;541.75;;;488.42;;
4132;SDS011;2080;51.038;7.008;2023-04-03T03:20:53;419.52;;;344.02;;
4132;SDS011;2080;51.038;7.008;2023-04-03T03:23:21;505.38;;;453.60;;
4132;SDS011;2080;51.038;7.008;2023-04-03T03:25:47;463.77;;;413.90;;
4132;SDS011;2080;51.038;7.008;2023-04-03T03:28:15;456.95;;;407.17;;
4132;SDS011;2080;51.038;7.008;2023-04-03T03:30:40;462.27;;;411.93;;
4132;SDS011;2080;51.038;7.008;2023-04-03T03:33:06;443.57;;;394.77;;
4132;SDS011;2080;51.038;7.008;2023-04-03T03:35:32;433.70;;;373.40;;
4132;SDS011;2080;51.038;7.008;2023-04-03T03:37:57;582.47;;;527.17;;
4132;SDS011;2080;51.038;7.008;2023-04-03T03:40:23;428.33;;;365.77;;
4132;SDS011;2080;51.038;7.008;2023-04-03T03:42:48;435.13;;;382.20;;
4132;SDS011;2080;51.038;7.008;2023-04-03T03:45:13;201.37;;;14.63;;
4132;SDS011;2080;51.038;7.008;2023-04-03T03:47:39;187.67;;;10.00;;
4132;SDS011;2080;51.038;7.008;2023-04-03T03:50:07;187.23;;;7.60;;
4132;SDS011;2080;51.038;7.008;2023-04-03T03:52:33;282.23;;;97.32;;
4132;SDS011;2080;51.038;7.008;2023-04-03T03:54:59;318.52;;;130.73;;
4132;SDS011;2080;51.038;7.008;2023-04-03T03:57:24;386.87;;;281.93;;
4132;SDS011;2080;51.038;7.008;2023-04-03T03:59:53;434.38;;;382.20;;
4132;SDS011;2080;51.038;7.008;2023-04-03T04:02:21;205.40;;;17.17;;
4132;SDS011;2080;51.038;7.008;2023-04-03T04:04:46;357.80;;;216.07;;
4132;SDS011;2080;51.038;7.008;2023-04-03T04:07:12;349.30;;;215.48;;
4132;SDS011;2080;51.038;7.008;2023-04-03T04:09:37;388.83;;;263.70;;
4132;SDS011;2080;51.038;7.008;2023-04-03T04:12:03;349.97;;;212.77;;
4132;SDS011;2080;51.038;7.008;2023-04-03T04:14:28;316.15;;;161.65;;
4132;SDS011;2080;51.038;7.008;2023-04-03T04:16:56;193.67;;;20.40;;
4132;SDS011;2080;51.038;7.008;2023-04-03T04:19:21;300.05;;;118.97;;
4132;SDS011;2080;51.038;7.008;2023-04-03T04:21:49;323.85;;;160.40;;
4132;SDS011;2080;51.038;7.008;2023-04-03T04:24:15;416.20;;;344.57;;
4132;SDS011;2080;51.038;7.008;2023-04-03T04:26:40;317.97;;;151.17;;
4132;SDS011;2080;51.038;7.008;2023-04-03T04:29:05;409.20;;;328.65;;
4132;SDS011;2080;51.038;7.008;2023-04-03T04:31:35;318.17;;;161.13;;
4132;SDS011;2080;51.038;7.008;2023-04-03T04:34:01;426.93;;;362.20;;
4132;SDS011;2080;51.038;7.008;2023-04-03T04:36:26;366.63;;;259.83;;
4132;SDS011;2080;51.038;7.008;2023-04-03T04:38:51;343.20;;;200.73;;
4132;SDS011;2080;51.038;7.008;2023-04-03T04:41:20;329.50;;;169.97;;
4132;SDS011;2080;51.038;7.008;2023-04-03T04:43:48;419.35;;;322.15;;
4132;SDS011;2080;51.038;7.008;2023-04-03T04:46:14;319.92;;;157.30;;
4132;SDS011;2080;51.038;7.008;2023-04-03T04:48:40;192.63;;;15.50;;
4132;SDS011;2080;51.038;7.008;2023-04-03T04:51:08;293.65;;;89.50;;
4132;SDS011;2080;51.038;7.008;2023-04-03T04:53:35;295.90;;;115.90;;
4132;SDS011;2080;51.038;7.008;2023-04-03T04:56:03;311.85;;;147.95;;
4132;SDS011;2080;51.038;7.008;2023-04-03T04:58:28;196.93;;;17.83;;
4132;SDS011;2080;51.038;7.008;2023-04-03T05:01:01;286.50;;;88.13;;
4132;SDS011;2080;51.038;7.008;2023-04-03T05:03:30;431.15;;;373.90;;
4132;SDS011;2080;51.038;7.008;2023-04-03T05:05:56;309.05;;;146.45;;
4132;SDS011;2080;51.038;7.008;2023-04-03T05:08:22;321.80;;;162.90;;
4132;SDS011;2080;51.038;7.008;2023-04-03T05:10:47;191.97;;;10.70;;
4132;SDS011;2080;51.038;7.008;2023-04-03T05:13:13;278.45;;;75.32;;
4132;SDS011;2080;51.038;7.008;2023-04-03T05:15:38;309.60;;;136.93;;
4132;SDS011;2080;51.038;7.008;2023-04-03T05:18:04;405.77;;;290.57;;
4132;SDS011;2080;51.038;7.008;2023-04-03T05:20:32;315.83;;;159.85;;
4132;SDS011;2080;51.038;7.008;2023-04-03T05:23:03;281.02;;;71.20;;
4132;SDS011;2080;51.038;7.008;2023-04-03T05:25:28;319.60;;;151.05;;
4132;SDS011;2080;51.038;7.008;2023-04-03T05:27:56;393.38;;;298.80;;
4132;SDS011;2080;51.038;7.008;2023-04-03T05:30:21;350.53;;;211.33;;
4132;SDS011;2080;51.038;7.008;2023-04-03T05:32:49;317.48;;;137.43;;
4132;SDS011;2080;51.038;7.008;2023-04-03T05:35:15;326.33;;;162.70;;
4132;SDS011;2080;51.038;7.008;2023-04-03T05:37:42;287.50;;;100.05;;
4132;SDS011;2080;51.038;7.008;2023-04-03T05:40:08;312.33;;;139.67;;
4132;SDS011;2080;51.038;7.008;2023-04-03T05:42:34;315.23;;;131.02;;
4132;SDS011;2080;51.038;7.008;2023-04-03T05:45:02;331.75;;;152.10;;
4132;SDS011;2080;51.038;7.008;2023-04-03T05:47:27;332.55;;;170.27;;
4132;SDS011;2080;51.038;7.008;2023-04-03T05:49:53;287.37;;;94.60;;
4132;SDS011;2080;51.038;7.008;2023-04-03T05:52:31;273.00;;;73.93;;
4132;SDS011;2080;51.038;7.008;2023-04-03T05:55:00;313.50;;;138.82;;
4132;SDS011;2080;51.038;7.008;2023-04-03T05:57:30;281.95;;;82.78;;
4132;SDS011;2080;51.038;7.008;2023-04-03T05:59:55;325.50;;;165.43;;
4132;SDS011;2080;51.038;7.008;2023-04-03T06:02:21;284.63;;;89.27;;
4132;SDS011;2080;51.038;7.008;2023-04-03T06:04:48;287.13;;;104.75;;
4132;SDS011;2080;51.038;7.008;2023-04-03T06:07:17;317.92;;;144.93;;
4132;SDS011;2080;51.038;7.008;2023-04-03T06:09:46;293.37;;;109.37;;
4132;SDS011;2080;51.038;7.008;2023-04-03T06:12:11;296.63;;;115.60;;
4132;SDS011;2080;51.038;7.008;2023-04-03T06:14:44;281.08;;;87.95;;
4132;SDS011;2080;51.038;7.008;2023-04-03T06:17:12;313.52;;;146.63;;
4132;SDS011;2080;51.038;7.008;2023-04-03T06:19:38;291.05;;;116.82;;
4132;SDS011;2080;51.038;7.008;2023-04-03T06:22:05;305.50;;;129.05;;
4132;SDS011;2080;51.038;7.008;2023-04-03T06:24:31;283.10;;;103.05;;
4132;SDS011;2080;51.038;7.008;2023-04-03T06:26:57;279.17;;;89.60;;
4132;SDS011;2080;51.038;7.008;2023-04-03T06:29:23;281.55;;;93.00;;
4132;SDS011;2080;51.038;7.008;2023-04-03T06:31:49;280.13;;;85.28;;
4132;SDS011;2080;51.038;7.008;2023-04-03T06:34:16;276.00;;;86.00;;
4132;SDS011;2080;51.038;7.008;2023-04-03T06:36:43;279.27;;;89.60;;
4132;SDS011;2080;51.038;7.008;2023-04-03T06:39:17;274.60;;;89.82;;
4132;SDS011;2080;51.038;7.008;2023-04-03T06:41:50;307.90;;;139.65;;
4132;SDS011;2080;51.038;7.008;2023-04-03T06:44:15;280.57;;;104.17;;
4132;SDS011;2080;51.038;7.008;2023-04-03T06:46:43;175.63;;;14.97;;
4132;SDS011;2080;51.038;7.008;2023-04-03T06:49:10;278.90;;;112.07;;
4132;SDS011;2080;51.038;7.008;2023-04-03T06:51:35;179.27;;;12.00;;
4132;SDS011;2080;51.038;7.008;2023-04-03T06:54:04;247.07;;;62.80;;
4132;SDS011;2080;51.038;7.008;2023-04-03T06:56:33;259.37;;;75.70;;
4132;SDS011;2080;51.038;7.008;2023-04-03T06:59:01;271.90;;;87.73;;
4132;SDS011;2080;51.038;7.008;2023-04-03T07:01:29;269.33;;;90.80;;
4132;SDS011;2080;51.038;7.008;2023-04-03T07:03:57;203.83;;;42.97;;
4132;SDS011;2080;51.038;7.008;2023-04-03T07:06:25;250.90;;;76.67;;
4132;SDS011;2080;51.038;7.008;2023-04-03T07:08:54;267.10;;;94.07;;
4132;SDS011;2080;51.038;7.008;2023-04-03T07:11:22;266.30;;;77.50;;
4132;SDS011;2080;51.038;7.008;2023-04-03T07:13:48;270.63;;;96.43;;
4132;SDS011;2080;51.038;7.008;2023-04-03T07:16:18;164.30;;;6.70;;
4132;SDS011;2080;51.038;7.008;2023-04-03T07:18:45;262.75;;;107.55;;
4132;SDS011;2080;51.038;7.008;2023-04-03T07:21:11;238.02;;;73.15;;
4132;SDS011;2080;51.038;7.008;2023-04-03T07:23:37;255.38;;;95.97;;
4132;SDS011;2080;51.038;7.008;2023-04-03T07:26:07;156.37;;;11.80;;
4132;SDS011;2080;51.038;7.008;2023-04-03T07:28:35;239.57;;;70.63;;
4132;SDS011;2080;51.038;7.008;2023-04-03T07:31:05;247.90;;;77.72;;
4132;SDS011;2080;51.038;7.008;2023-04-03T07:33:36;255.32;;;103.93;;
4132;SDS011;2080;51.038;7.008;2023-04-03T07:36:03;238.68;;;77.88;;
4132;SDS011;2080;51.038;7.008;2023-04-03T07:38:29;230.10;;;72.63;;
4132;SDS011;2080;51.038;7.008;2023-04-03T07:40:56;218.48;;;60.30;;
4132;SDS011;2080;51.038;7.008;2023-04-03T07:43:24;217.47;;;52.77;;
4132;SDS011;2080;51.038;7.008;2023-04-03T07:45:51;217.23;;;60.15;;
4132;SDS011;2080;51.038;7.008;2023-04-03T07:48:20;106.40;;;17.67;;
4132;SDS011;2080;51.038;7.008;2023-04-03T07:50:49;545.72;;;215.57;;
4132;SDS011;2080;51.038;7.008;2023-04-03T07:53:18;109.50;;;4.20;;
4132;SDS011;2080;51.038;7.008;2023-04-03T07:55:47;48.63;;;2.63;;
4132;SDS011;2080;51.038;7.008;2023-04-03T07:58:16;73.05;;;2.20;;
4132;SDS011;2080;51.038;7.008;2023-04-03T08:00:42;78.83;;;3.47;;
4132;SDS011;2080;51.038;7.008;2023-04-03T08:03:09;100.20;;;5.40;;
4132;SDS011;2080;51.038;7.008;2023-04-03T08:05:36;67.05;;;3.97;;
4132;SDS011;2080;51.038;7.008;2023-04-03T08:08:04;72.22;;;4.88;;
4132;SDS011;2080;51.038;7.008;2023-04-03T08:10:31;37.43;;;2.00;;
4132;SDS011;2080;51.038;7.008;2023-04-03T08:12:56;42.40;;;2.10;;
4132;SDS011;2080;51.038;7.008;2023-04-03T08:15:24;53.10;;;2.37;;
4132;SDS011;2080;51.038;7.008;2023-04-03T08:17:49;46.85;;;2.45;;
4132;SDS011;2080;51.038;7.008;2023-04-03T08:20:17;48.90;;;1.70;;
4132;SDS011;2080;51.038;7.008;2023-04-03T08:22:43;48.90;;;1.73;;
4132;SDS011;2080;51.038;7.008;2023-04-03T08:25:11;41.42;;;2.33;;
4132;SDS011;2080;51.038;7.008;2023-04-03T08:27:36;52.23;;;2.13;;
4132;SDS011;2080;51.038;7.008;2023-04-03T08:30:02;45.57;;;2.40;;
4132;SDS011;2080;51.038;7.008;2023-04-03T08:32:29;34.80;;;1.87;;
4132;SDS011;2080;51.038;7.008;2023-04-03T08:34:54;98.43;;;9.60;;
4132;SDS011;2080;51.038;7.008;2023-04-03T08:37:19;34.07;;;2.10;;
4132;SDS011;2080;51.038;7.008;2023-04-03T08:39:45;23.10;;;1.20;;
4132;SDS011;2080;51.038;7.008;2023-04-03T08:42:24;21.70;;;1.77;;
4132;SDS011;2080;51.038;7.008;2023-04-03T08:45:14;38.50;;;2.20;;
4132;SDS011;2080;51.038;7.008;2023-04-03T08:50:26;32.08;;;1.80;;
4132;SDS011;2080;51.038;7.008;2023-04-03T08:52:57;32.08;;;1.92;;
4132;SDS011;2080;51.038;7.008;2023-04-03T08:58:03;44.45;;;2.30;;
4132;SDS011;2080;51.038;7.008;2023-04-03T09:03:28;22.63;;;1.33;;
4132;SDS011;2080;51.038;7.008;2023-04-03T09:05:57;21.10;;;1.30;;
4132;SDS011;2080;51.038;7.008;2023-04-03T09:14:17;16.20;;;1.10;;
4132;SDS011;2080;51.038;7.008;2023-04-03T09:18:55;22.58;;;1.85;;
4132;SDS011;2080;51.038;7.008;2023-04-03T09:21:34;18.73;;;1.20;;
4132;SDS011;2080;51.038;7.008;2023-04-03T09:24:07;20.38;;;1.63;;
4132;SDS011;2080;51.038;7.008;2023-04-03T09:29:05;20.30;;;1.87;;
4132;SDS011;2080;51.038;7.008;2023-04-03T09:31:39;19.20;;;1.30;;
4132;SDS011;2080;51.038;7.008;2023-04-03T09:34:23;30.23;;;1.58;;
4132;SDS011;2080;51.038;7.008;2023-04-03T09:36:57;19.30;;;1.20;;
4132;SDS011;2080;51.038;7.008;2023-04-03T09:39:31;20.37;;;1.57;;
4132;SDS011;2080;51.038;7.008;2023-04-03T09:42:05;24.92;;;1.90;;
4132;SDS011;2080;51.038;7.008;2023-04-03T09:44:41;23.35;;;2.65;;
4132;SDS011;2080;51.038;7.008;2023-04-03T09:52:40;24.43;;;1.50;;
4132;SDS011;2080;51.038;7.008;2023-04-03T09:55:07;23.67;;;1.70;;
4132;SDS011;2080;51.038;7.008;2023-04-03T09:57:44;24.90;;;1.37;;
4132;SDS011;2080;51.038;7.008;2023-04-03T10:00:27;25.52;;;1.80;;
4132;SDS011;2080;51.038;7.008;2023-04-03T10:02:58;23.73;;;1.70;;
4132;SDS011;2080;51.038;7.008;2023-04-03T10:10:38;26.98;;;1.70;;
4132;SDS011;2080;51.038;7.008;2023-04-03T10:21:11;84.30;;;12.48;;
4132;SDS011;2080;51.038;7.008;2023-04-03T10:26:57;23.50;;;2.00;;
4132;SDS011;2080;51.038;7.008;2023-04-03T10:42:10;24.60;;;1.60;;
4132;SDS011;2080;51.038;7.008;2023-04-03T10:47:22;15.57;;;1.30;;
4132;SDS011;2080;51.038;7.008;2023-04-03T10:52:43;19.00;;;1.40;;
4132;SDS011;2080;51.038;7.008;2023-04-03T10:55:24;20.67;;;1.77;;
4132;SDS011;2080;51.038;7.008;2023-04-03T10:57:59;22.58;;;1.50;;
4132;SDS011;2080;51.038;7.008;2023-04-03T11:00:36;19.45;;;1.20;;
4132;SDS011;2080;51.038;7.008;2023-04-03T11:03:10;20.50;;;1.00;;
4132;SDS011;2080;51.038;7.008;2023-04-03T11:05:44;220.27;;;38.53;;
4132;SDS011;2080;51.038;7.008;2023-04-03T11:10:55;18.63;;;1.35;;
4132;SDS011;2080;51.038;7.008;2023-04-03T11:13:33;17.30;;;1.10;;
4132;SDS011;2080;51.038;7.008;2023-04-03T11:16:05;19.15;;;1.40;;
4132;SDS011;2080;51.038;7.008;2023-04-03T11:23:46;21.40;;;1.40;;
4132;SDS011;2080;51.038;7.008;2023-04-03T11:26:17;18.27;;;1.20;;
4132;SDS011;2080;51.038;7.008;2023-04-03T11:28:47;19.65;;;1.33;;
4132;SDS011;2080;51.038;7.008;2023-04-03T11:36:46;15.60;;;0.93;;
4132;SDS011;2080;51.038;7.008;2023-04-03T11:41:46;17.35;;;1.20;;
4132;SDS011;2080;51.038;7.008;2023-04-03T11:47:04;176.10;;;39.50;;
4132;SDS011;2080;51.038;7.008;2023-04-03T11:57:47;18.95;;;1.00;;
4132;SDS011;2080;51.038;7.008;2023-04-03T12:16:27;14.67;;;1.13;;
4132;SDS011;2080;51.038;7.008;2023-04-03T12:22:15;14.90;;;1.03;;
4132;SDS011;2080;51.038;7.008;2023-04-03T12:24:45;32.00;;;1.50;;
4132;SDS011;2080;51.038;7.008;2023-04-03T12:30:16;14.93;;;1.43;;
4132;SDS011;2080;51.038;7.008;2023-04-03T12:41:19;18.30;;;1.00;;
4132;SDS011;2080;51.038;7.008;2023-04-03T12:46:50;16.90;;;1.40;;
4132;SDS011;2080;51.038;7.008;2023-04-03T12:51:45;14.43;;;0.93;;
4132;SDS011;2080;51.038;7.008;2023-04-03T12:54:16;13.07;;;0.87;;
4132;SDS011;2080;51.038;7.008;2023-04-03T12:56:47;105.63;;;32.30;;
4132;SDS011;2080;51.038;7.008;2023-04-03T12:59:18;50.47;;;8.13;;
4132;SDS011;2080;51.038;7.008;2023-04-03T13:01:54;176.87;;;36.60;;
4132;SDS011;2080;51.038;7.008;2023-04-03T13:04:23;15.60;;;1.43;;
4132;SDS011;2080;51.038;7.008;2023-04-03T13:06:50;15.13;;;1.10;;
4132;SDS011;2080;51.038;7.008;2023-04-03T13:09:25;15.55;;;1.05;;
4132;SDS011;2080;51.038;7.008;2023-04-03T13:14:37;14.77;;;1.07;;
4132;SDS011;2080;51.038;7.008;2023-04-03T13:17:15;13.87;;;1.10;;
4132;SDS011;2080;51.038;7.008;2023-04-03T13:19:41;13.30;;;0.77;;
4132;SDS011;2080;51.038;7.008;2023-04-03T13:22:23;14.73;;;1.57;;
4132;SDS011;2080;51.038;7.008;2023-04-03T13:25:05;15.37;;;1.50;;
4132;SDS011;2080;51.038;7.008;2023-04-03T13:27:37;16.57;;;1.40;;
4132;SDS011;2080;51.038;7.008;2023-04-03T13:30:23;14.97;;;1.07;;
4132;SDS011;2080;51.038;7.008;2023-04-03T13:32:49;14.50;;;0.90;;
4132;SDS011;2080;51.038;7.008;2023-04-03T13:40:58;13.67;;;0.80;;
4132;SDS011;2080;51.038;7.008;2023-04-03T13:43:27;13.37;;;1.00;;
4132;SDS011;2080;51.038;7.008;2023-04-03T13:46:05;15.80;;;0.90;;
4132;SDS011;2080;51.038;7.008;2023-04-03T13:48:37;19.30;;;1.43;;
4132;SDS011;2080;51.038;7.008;2023-04-03T13:53:42;21.27;;;1.13;;
4132;SDS011;2080;51.038;7.008;2023-04-03T13:56:35;14.57;;;1.03;;
4132;SDS011;2080;51.038;7.008;2023-04-03T13:59:05;15.07;;;1.27;;
4132;SDS011;2080;51.038;7.008;2023-04-03T14:07:11;25.23;;;1.73;;
4132;SDS011;2080;51.038;7.008;2023-04-03T14:09:41;14.40;;;0.90;;
4132;SDS011;2080;51.038;7.008;2023-04-03T14:12:12;146.03;;;52.87;;
4132;SDS011;2080;51.038;7.008;2023-04-03T14:14:41;13.23;;;0.73;;
4132;SDS011;2080;51.038;7.008;2023-04-03T14:17:16;15.83;;;1.47;;
4132;SDS011;2080;51.038;7.008;2023-04-03T14:19:46;451.27;;;94.70;;
4132;SDS011;2080;51.038;7.008;2023-04-03T14:22:19;51.70;;;2.23;;
4132;SDS011;2080;51.038;7.008;2023-04-03T14:24:48;72.80;;;31.77;;
4132;SDS011;2080;51.038;7.008;2023-04-03T14:27:19;15.23;;;0.90;;
4132;SDS011;2080;51.038;7.008;2023-04-03T14:29:47;14.43;;;0.90;;
4132;SDS011;2080;51.038;7.008;2023-04-03T14:32:15;14.50;;;0.83;;
4132;SDS011;2080;51.038;7.008;2023-04-03T14:34:45;16.60;;;1.50;;
4132;SDS011;2080;51.038;7.008;2023-04-03T14:37:12;17.70;;;1.20;;
4132;SDS011;2080;51.038;7.008;2023-04-03T14:39:45;16.60;;;1.30;;
4132;SDS011;2080;51.038;7.008;2023-04-03T14:42:19;19.58;;;1.80;;
4132;SDS011;2080;51.038;7.008;2023-04-03T14:44:47;18.10;;;1.70;;
4132;SDS011;2080;51.038;7.008;2023-04-03T14:47:12;20.87;;;1.53;;
4132;SDS011;2080;51.038;7.008;2023-04-03T14:49:42;16.47;;;1.33;;
4132;SDS011;2080;51.038;7.008;2023-04-03T14:52:16;147.53;;;31.97;;
4132;SDS011;2080;51.038;7.008;2023-04-03T14:54:44;14.67;;;1.27;;
4132;SDS011;2080;51.038;7.008;2023-04-03T14:57:11;14.37;;;1.50;;
4132;SDS011;2080;51.038;7.008;2023-04-03T14:59:39;20.47;;;1.00;;
4132;SDS011;2080;51.038;7.008;2023-04-03T15:02:38;23.80;;;1.50;;
4132;SDS011;2080;51.038;7.008;2023-04-03T15:04:59;27.43;;;1.10;;
4132;SDS011;2080;51.038;7.008;2023-04-03T15:07:28;18.83;;;1.03;;
4132;SDS011;2080;51.038;7.008;2023-04-03T15:09:56;16.17;;;1.70;;
4132;SDS011;2080;51.038;7.008;2023-04-03T15:12:24;14.30;;;1.10;;
4132;SDS011;2080;51.038;7.008;2023-04-03T15:14:52;18.97;;;1.13;;
4132;SDS011;2080;51.038;7.008;2023-04-03T15:17:18;16.10;;;1.63;;
4132;SDS011;2080;51.038;7.008;2023-04-03T15:19:46;14.33;;;1.00;;
4132;SDS011;2080;51.038;7.008;2023-04-03T15:22:13;24.73;;;2.43;;
4132;SDS011;2080;51.038;7.008;2023-04-03T15:24:42;19.17;;;1.75;;
4132;SDS011;2080;51.038;7.008;2023-04-03T15:27:08;18.60;;;1.63;;
4132;SDS011;2080;51.038;7.008;2023-04-03T15:29:34;16.20;;;1.30;;
4132;SDS011;2080;51.038;7.008;2023-04-03T15:32:00;18.73;;;2.23;;
4132;SDS011;2080;51.038;7.008;2023-04-03T15:34:29;19.10;;;1.40;;
4132;SDS011;2080;51.038;7.008;2023-04-03T15:36:56;18.65;;;1.33;;
4132;SDS011;2080;51.038;7.008;2023-04-03T15:39:24;16.30;;;1.47;;
4132;SDS011;2080;51.038;7.008;2023-04-03T15:41:50;17.50;;;1.10;;
4132;SDS011;2080;51.038;7.008;2023-04-03T15:44:17;18.30;;;1.13;;
4132;SDS011;2080;51.038;7.008;2023-04-03T15:46:45;14.30;;;0.83;;
4132;SDS011;2080;51.038;7.008;2023-04-03T15:49:12;18.90;;;1.20;;
4132;SDS011;2080;51.038;7.008;2023-04-03T15:51:38;19.70;;;2.03;;
4132;SDS011;2080;51.038;7.008;2023-04-03T15:54:05;16.20;;;1.30;;
4132;SDS011;2080;51.038;7.008;2023-04-03T15:56:31;19.47;;;1.60;;
4132;SDS011;2080;51.038;7.008;2023-04-03T15:58:56;16.60;;;1.50;;
4132;SDS011;2080;51.038;7.008;2023-04-03T16:01:22;152.60;;;34.87;;
4132;SDS011;2080;51.038;7.008;2023-04-03T16:03:49;17.43;;;1.33;;
4132;SDS011;2080;51.038;7.008;2023-04-03T16:06:15;14.37;;;0.90;;
4132;SDS011;2080;51.038;7.008;2023-04-03T16:08:43;19.83;;;1.50;;
4132;SDS011;2080;51.038;7.008;2023-04-03T16:11:12;39.10;;;3.67;;
4132;SDS011;2080;51.038;7.008;2023-04-03T16:13:40;22.60;;;1.55;;
4132;SDS011;2080;51.038;7.008;2023-04-03T16:16:07;19.80;;;1.20;;
4132;SDS011;2080;51.038;7.008;2023-04-03T16:18:32;14.60;;;1.33;;
4132;SDS011;2080;51.038;7.008;2023-04-03T16:21:02;20.23;;;1.30;;
4132;SDS011;2080;51.038;7.008;2023-04-03T16:23:28;26.37;;;1.60;;
4132;SDS011;2080;51.038;7.008;2023-04-03T16:25:53;13.40;;;1.03;;
4132;SDS011;2080;51.038;7.008;2023-04-03T16:28:18;14.07;;;1.23;;
4132;SDS011;2080;51.038;7.008;2023-04-03T16:30:48;19.17;;;2.17;;
4132;SDS011;2080;51.038;7.008;2023-04-03T16:33:16;13.37;;;1.10;;
4132;SDS011;2080;51.038;7.008;2023-04-03T16:35:42;26.53;;;1.80;;
4132;SDS011;2080;51.038;7.008;2023-04-03T16:38:11;13.70;;;1.17;;
4132;SDS011;2080;51.038;7.008;2023-04-03T16:40:36;12.87;;;0.80;;
4132;SDS011;2080;51.038;7.008;2023-04-03T16:43:03;19.03;;;1.43;;
4132;SDS011;2080;51.038;7.008;2023-04-03T16:45:31;20.37;;;1.43;;
4132;SDS011;2080;51.038;7.008;2023-04-03T16:47:57;19.97;;;1.17;;
4132;SDS011;2080;51.038;7.008;2023-04-03T16:50:22;19.20;;;1.40;;
4132;SDS011;2080;51.038;7.008;2023-04-03T16:52:47;20.30;;;1.30;;
4132;SDS011;2080;51.038;7.008;2023-04-03T16:55:13;27.43;;;2.33;;
4132;SDS011;2080;51.038;7.008;2023-04-03T16:57:41;18.37;;;2.07;;
4132;SDS011;2080;51.038;7.008;2023-04-03T17:00:07;13.97;;;1.10;;
4132;SDS011;2080;51.038;7.008;2023-04-03T17:02:35;15.30;;;1.20;;
4132;SDS011;2080;51.038;7.008;2023-04-03T17:05:00;14.53;;;1.33;;
4132;SDS011;2080;51.038;7.008;2023-04-03T17:07:25;19.13;;;2.17;;
4132;SDS011;2080;51.038;7.008;2023-04-03T17:09:51;18.03;;;1.73;;
4132;SDS011;2080;51.038;7.008;2023-04-03T17:12:18;30.77;;;2.23;;
4132;SDS011;2080;51.038;7.008;2023-04-03T17:14:45;16.13;;;1.50;;
4132;SDS011;2080;51.038;7.008;2023-04-03T17:17:11;16.40;;;1.63;;
4132;SDS011;2080;51.038;7.008;2023-04-03T17:19:44;17.93;;;1.60;;